Time;durP1;ratioP1;P1;durP2;ratioP2;P2;SDS_P1;SDS_P2;PMS_P1;PMS_P2;Temp;Humidity;BMP_temperature;BMP_pressure;BME280_temperature;BME280_humidity;BME280_pressure;Samples;Min_cycle;Max_cycle;Signal;HPM_P1;HPM_P2
2022/11/08 00:03:41;;;;;;;15.68;7.97;;;;;;;;;;5014641;28;20036;-80
2022/11/08 00:14:18;;;;;;;16.52;9.80;;;;;;;;;;5013697;28;20029;-80
2022/11/08 00:16:44;;;;;;;18.10;8.27;;;;;;;;;;5014985;28;20030;-80
2022/11/08 00:19:09;;;;;;;17.92;7.93;;;;;;;;;;5013550;28;20038;-80
2022/11/08 00:21:35;;;;;;;12.50;7.75;;;;;;;;;;5016280;28;20119;-81
2022/11/08 00:24:00;;;;;;;14.63;8.80;;;;;;;;;;5014425;28;20025;-81
2022/11/08 00:26:26;;;;;;;15.20;8.57;;;;;;;;;;5014463;28;20076;-81
2022/11/08 00:28:52;;;;;;;19.73;9.05;;;;;;;;;;5012485;28;20049;-80
2022/11/08 00:31:17;;;;;;;17.45;8.48;;;;;;;;;;5011751;28;20029;-80
2022/11/08 00:33:42;;;;;;;15.38;8.57;;;;;;;;;;5014235;28;20503;-81
2022/11/08 00:36:08;;;;;;;20.35;9.27;;;;;;;;;;5045500;28;20026;-80
2022/11/08 00:38:34;;;;;;;17.02;8.23;;;;;;;;;;5012698;28;20030;-80
2022/11/08 00:40:59;;;;;;;16.77;8.20;;;;;;;;;;5013392;28;20045;-81
2022/11/08 00:43:25;;;;;;;18.83;8.35;;;;;;;;;;5014011;28;20025;-80
2022/11/08 00:45:50;;;;;;;19.00;8.07;;;;;;;;;;5014548;28;20026;-80
2022/11/08 00:48:15;;;;;;;17.80;8.50;;;;;;;;;;5012886;28;20030;-79
2022/11/08 00:50:41;;;;;;;17.98;8.73;;;;;;;;;;5013699;28;20014;-80
2022/11/08 00:53:07;;;;;;;17.25;8.23;;;;;;;;;;5014405;28;20029;-80
2022/11/08 00:55:32;;;;;;;19.55;8.30;;;;;;;;;;5013352;28;20022;-80
2022/11/08 00:57:57;;;;;;;20.63;9.10;;;;;;;;;;5016339;28;20032;-81
2022/11/08 01:00:23;;;;;;;18.17;7.80;;;;;;;;;;5015821;28;20093;-81
2022/11/08 01:03:17;;;;;;;15.20;7.40;;;;;;;;;;5014014;28;20033;-80
2022/11/08 01:05:37;;;;;;;22.77;9.30;;;;;;;;;;5017654;28;20052;-80
2022/11/08 01:08:03;;;;;;;19.80;8.55;;;;;;;;;;5017041;28;20371;-81
2022/11/08 01:10:29;;;;;;;19.30;9.73;;;;;;;;;;5017159;28;20036;-80
2022/11/08 01:12:54;;;;;;;18.52;8.68;;;;;;;;;;5017094;28;20076;-82
2022/11/08 01:15:20;;;;;;;15.48;8.43;;;;;;;;;;5018269;28;20037;-80
2022/11/08 01:17:45;;;;;;;17.88;8.40;;;;;;;;;;5017402;28;20136;-81
2022/11/08 01:20:11;;;;;;;20.80;9.33;;;;;;;;;;5017946;28;20022;-81
2022/11/08 01:22:36;;;;;;;24.15;9.23;;;;;;;;;;5016550;28;20478;-79
2022/11/08 01:25:02;;;;;;;22.30;9.10;;;;;;;;;;5016417;28;20026;-82
2022/11/08 01:27:27;;;;;;;16.15;7.53;;;;;;;;;;5017278;28;20105;-81
2022/11/08 01:29:53;;;;;;;17.58;7.43;;;;;;;;;;5017683;28;20032;-80
2022/11/08 01:32:18;;;;;;;16.20;7.15;;;;;;;;;;5016450;28;20113;-80
2022/11/08 01:34:44;;;;;;;15.13;8.38;;;;;;;;;;5017743;28;20056;-81
2022/11/08 01:37:09;;;;;;;14.10;7.72;;;;;;;;;;5017502;28;20025;-80
2022/11/08 01:39:34;;;;;;;13.70;7.07;;;;;;;;;;5017902;28;20072;-81
2022/11/08 01:42:00;;;;;;;14.37;7.37;;;;;;;;;;5018093;28;20022;-80
2022/11/08 01:44:25;;;;;;;15.93;7.82;;;;;;;;;;5017825;28;20068;-80
2022/11/08 01:46:51;;;;;;;16.50;7.22;;;;;;;;;;5016303;28;20386;-80
2022/11/08 01:49:43;;;;;;;14.52;7.40;;;;;;;;;;5016926;28;20441;-81
2022/11/08 01:52:15;;;;;;;15.18;7.95;;;;;;;;;;5014498;28;20133;-80
2022/11/08 01:54:58;;;;;;;16.63;7.13;;;;;;;;;;5017391;28;20108;-80
2022/11/08 01:57:34;;;;;;;17.70;8.90;;;;;;;;;;5016719;28;20467;-81
2022/11/08 02:00:04;;;;;;;14.67;8.13;;;;;;;;;;5015989;28;20050;-80
2022/11/08 02:02:31;;;;;;;13.75;7.10;;;;;;;;;;5017852;28;20037;-80
2022/11/08 02:04:57;;;;;;;20.07;8.13;;;;;;;;;;5017660;28;20026;-80
2022/11/08 02:07:24;;;;;;;18.20;8.23;;;;;;;;;;5015052;28;20022;-82
2022/11/08 02:09:49;;;;;;;20.47;8.43;;;;;;;;;;5016684;28;20038;-81
2022/11/08 02:12:19;;;;;;;16.87;8.73;;;;;;;;;;5015471;28;20159;-80
2022/11/08 02:14:44;;;;;;;15.63;7.43;;;;;;;;;;5015648;28;20061;-80
2022/11/08 02:17:10;;;;;;;15.30;8.23;;;;;;;;;;5015270;28;20030;-80
2022/11/08 02:19:45;;;;;;;18.00;8.67;;;;;;;;;;5014784;28;20056;-81
2022/11/08 02:22:26;;;;;;;16.70;8.20;;;;;;;;;;5018687;28;20018;-80
2022/11/08 02:24:53;;;;;;;20.03;8.23;;;;;;;;;;5020399;28;20029;-80
2022/11/08 02:27:18;;;;;;;15.70;8.57;;;;;;;;;;5018313;28;20030;-79
2022/11/08 02:29:44;;;;;;;13.47;7.33;;;;;;;;;;5016370;28;20040;-80
2022/11/08 02:32:10;;;;;;;19.73;8.60;;;;;;;;;;5014969;28;20029;-80
2022/11/08 02:34:44;;;;;;;19.00;8.93;;;;;;;;;;5016376;28;20369;-81
2022/11/08 02:37:12;;;;;;;14.73;8.40;;;;;;;;;;5015187;28;20103;-80
2022/11/08 02:39:37;;;;;;;21.03;9.50;;;;;;;;;;5016315;28;20060;-80
2022/11/08 02:42:03;;;;;;;13.77;7.33;;;;;;;;;;5014257;28;20113;-80
2022/11/08 02:44:28;;;;;;;17.43;7.73;;;;;;;;;;5016099;28;20037;-81
2022/11/08 02:46:54;;;;;;;18.30;7.93;;;;;;;;;;5016883;28;20112;-81
2022/11/08 02:49:20;;;;;;;17.17;8.43;;;;;;;;;;5016197;28;20033;-81
2022/11/08 02:51:45;;;;;;;15.57;8.23;;;;;;;;;;5015197;28;20021;-81
2022/11/08 02:54:10;;;;;;;15.23;7.80;;;;;;;;;;5016395;28;20025;-80
2022/11/08 02:56:36;;;;;;;17.43;8.37;;;;;;;;;;5015404;28;20029;-80
2022/11/08 02:59:02;;;;;;;16.90;8.10;;;;;;;;;;5017249;28;20064;-79
2022/11/08 03:01:27;;;;;;;15.67;8.23;;;;;;;;;;5016530;28;20030;-81
2022/11/08 03:03:53;;;;;;;14.33;8.23;;;;;;;;;;5015925;28;20026;-80
2022/11/08 03:06:18;;;;;;;14.30;8.23;;;;;;;;;;5016160;28;20120;-81
2022/11/08 03:08:44;;;;;;;14.90;7.23;;;;;;;;;;5018273;28;20033;-81
2022/11/08 03:11:09;;;;;;;19.30;7.83;;;;;;;;;;5017669;28;20018;-80
2022/11/08 03:13:35;;;;;;;16.27;7.37;;;;;;;;;;5016743;28;20056;-80
2022/11/08 03:16:04;;;;;;;18.87;7.40;;;;;;;;;;5016158;28;20014;-80
2022/11/08 03:18:30;;;;;;;15.20;7.70;;;;;;;;;;5016353;28;20022;-81
2022/11/08 03:20:55;;;;;;;14.33;7.63;;;;;;;;;;5015926;28;20177;-83
2022/11/08 03:23:21;;;;;;;15.47;7.30;;;;;;;;;;5016903;28;20056;-80
2022/11/08 03:25:46;;;;;;;15.00;7.93;;;;;;;;;;5017357;28;20028;-81
2022/11/08 03:28:12;;;;;;;16.53;7.57;;;;;;;;;;5017083;28;20035;-80
2022/11/08 03:30:37;;;;;;;11.80;6.67;;;;;;;;;;5017586;28;20026;-81
2022/11/08 03:33:03;;;;;;;16.70;7.73;;;;;;;;;;5014417;28;20018;-80
2022/11/08 03:35:29;;;;;;;12.10;7.50;;;;;;;;;;5015829;28;20061;-81
2022/11/08 03:37:56;;;;;;;15.33;7.23;;;;;;;;;;5016745;28;20043;-81
2022/11/08 03:40:22;;;;;;;16.37;8.03;;;;;;;;;;5017173;28;20038;-82
2022/11/08 03:42:48;;;;;;;17.10;7.40;;;;;;;;;;5016394;28;20496;-80
2022/11/08 03:45:15;;;;;;;14.37;7.37;;;;;;;;;;5014857;28;20025;-80
2022/11/08 03:47:42;;;;;;;19.33;8.23;;;;;;;;;;5015929;28;20121;-80
2022/11/08 03:50:09;;;;;;;16.37;7.47;;;;;;;;;;5015142;28;20022;-79
2022/11/08 03:52:51;;;;;;;18.13;7.87;;;;;;;;;;4997868;28;20026;-80
2022/11/08 03:55:18;;;;;;;19.20;8.07;;;;;;;;;;5015981;28;20034;-80
2022/11/08 03:57:45;;;;;;;18.27;8.00;;;;;;;;;;5016293;28;20117;-79
2022/11/08 04:00:12;;;;;;;17.83;7.73;;;;;;;;;;5016726;28;20470;-82
2022/11/08 04:02:38;;;;;;;14.50;7.80;;;;;;;;;;5016584;28;20036;-81
2022/11/08 04:05:04;;;;;;;13.93;7.40;;;;;;;;;;5017213;28;20038;-80
2022/11/08 04:07:30;;;;;;;15.07;7.17;;;;;;;;;;5016079;28;20080;-79
2022/11/08 04:09:56;;;;;;;14.40;7.10;;;;;;;;;;5017226;28;20045;-81
2022/11/08 04:15:15;;;;;;;15.23;7.20;;;;;;;;;;5018632;28;20120;-80
2022/11/08 04:23:16;;;;;;;18.37;7.37;;;;;;;;;;5017100;28;20076;-81
2022/11/08 04:25:43;;;;;;;14.70;7.80;;;;;;;;;;5016097;28;20036;-81
2022/11/08 04:28:10;;;;;;;17.43;7.83;;;;;;;;;;5014725;28;20025;-80
2022/11/08 04:30:35;;;;;;;19.67;7.80;;;;;;;;;;5017179;28;20075;-81
2022/11/08 04:33:03;;;;;;;17.67;7.13;;;;;;;;;;5014622;28;20025;-79
2022/11/08 04:35:30;;;;;;;10.93;7.20;;;;;;;;;;5015846;28;20048;-81
2022/11/08 04:38:02;;;;;;;13.47;7.00;;;;;;;;;;5015902;28;20026;-80
2022/11/08 04:40:29;;;;;;;16.70;8.68;;;;;;;;;;5015873;28;20054;-81
2022/11/08 04:42:55;;;;;;;13.57;7.17;;;;;;;;;;5016532;28;20038;-80
2022/11/08 04:45:20;;;;;;;14.77;7.17;;;;;;;;;;5015857;28;20029;-80
2022/11/08 04:47:47;;;;;;;16.63;7.57;;;;;;;;;;5014625;28;20065;-79
2022/11/08 04:50:13;;;;;;;14.07;7.73;;;;;;;;;;5014999;28;20017;-80
2022/11/08 04:52:39;;;;;;;16.93;8.43;;;;;;;;;;5048979;28;20026;-80
2022/11/08 04:55:06;;;;;;;16.20;7.93;;;;;;;;;;5015951;28;20034;-79
2022/11/08 04:57:32;;;;;;;15.03;7.00;;;;;;;;;;5016067;28;20026;-80
2022/11/08 04:59:57;;;;;;;21.20;7.37;;;;;;;;;;5016881;28;20028;-81
2022/11/08 05:02:23;;;;;;;16.47;7.50;;;;;;;;;;5016726;28;20134;-81
2022/11/08 05:04:48;;;;;;;17.13;8.23;;;;;;;;;;5016907;28;20034;-80
2022/11/08 05:07:14;;;;;;;20.87;8.27;;;;;;;;;;5017858;28;20030;-81
2022/11/08 05:09:39;;;;;;;18.10;7.80;;;;;;;;;;5015021;28;20095;-80
2022/11/08 05:12:05;;;;;;;14.93;7.27;;;;;;;;;;5014843;28;20018;-79
2022/11/08 05:14:30;;;;;;;14.57;8.20;;;;;;;;;;5016115;28;20112;-80
2022/11/08 05:16:56;;;;;;;13.67;7.77;;;;;;;;;;5017163;28;20026;-80
2022/11/08 05:24:51;;;;;;;17.50;7.63;;;;;;;;;;5042360;28;20060;-81
2022/11/08 05:27:17;;;;;;;16.57;9.27;;;;;;;;;;4996020;28;20470;-81
2022/11/08 05:29:43;;;;;;;20.13;9.33;;;;;;;;;;4994971;28;20038;-81
2022/11/08 05:32:08;;;;;;;19.47;9.13;;;;;;;;;;4996340;28;20026;-79
2022/11/08 05:34:33;;;;;;;22.40;9.57;;;;;;;;;;4996535;28;20026;-80
2022/11/08 05:36:59;;;;;;;19.87;10.23;;;;;;;;;;4998124;28;20034;-82
2022/11/08 05:39:24;;;;;;;14.70;8.53;;;;;;;;;;4995689;28;20050;-78
2022/11/08 05:41:50;;;;;;;17.87;8.97;;;;;;;;;;5004997;28;20033;-80
2022/11/08 05:44:15;;;;;;;16.40;8.60;;;;;;;;;;4998573;28;20494;-79
2022/11/08 05:46:41;;;;;;;13.67;8.10;;;;;;;;;;5005795;28;20157;-81
2022/11/08 05:49:06;;;;;;;19.63;8.93;;;;;;;;;;5007585;28;20033;-80
2022/11/08 05:51:32;;;;;;;14.37;8.07;;;;;;;;;;5005841;28;21547;-81
2022/11/08 05:53:57;;;;;;;17.43;8.33;;;;;;;;;;5005770;28;20474;-81
2022/11/08 05:56:23;;;;;;;19.00;8.13;;;;;;;;;;5023298;28;20064;-80
2022/11/08 05:58:48;;;;;;;15.40;7.90;;;;;;;;;;5008349;28;20089;-79
2022/11/08 06:01:18;;;;;;;13.10;7.47;;;;;;;;;;5021483;28;20029;-79
2022/11/08 06:03:45;;;;;;;21.50;7.70;;;;;;;;;;5003198;28;20048;-78
2022/11/08 06:06:13;;;;;;;18.37;8.37;;;;;;;;;;5005711;28;20050;-79
2022/11/08 06:08:41;;;;;;;13.10;7.90;;;;;;;;;;5001080;28;20017;-79
2022/11/08 06:11:10;;;;;;;12.63;7.47;;;;;;;;;;5011438;28;20092;-77
2022/11/08 06:13:36;;;;;;;14.50;8.07;;;;;;;;;;5010289;28;20061;-78
2022/11/08 06:16:03;;;;;;;15.60;8.70;;;;;;;;;;5008827;28;20062;-78
2022/11/08 06:18:29;;;;;;;16.17;8.60;;;;;;;;;;5015887;28;20052;-80
2022/11/08 06:20:57;;;;;;;14.23;7.33;;;;;;;;;;5006786;28;20034;-77
2022/11/08 06:23:23;;;;;;;10.50;7.10;;;;;;;;;;5004172;28;20052;-80
2022/11/08 06:25:48;;;;;;;18.10;8.00;;;;;;;;;;5011726;28;20022;-79
2022/11/08 06:28:14;;;;;;;15.33;8.30;;;;;;;;;;5008545;28;20026;-80
2022/11/08 06:30:40;;;;;;;13.70;7.60;;;;;;;;;;5005434;28;20034;-79
2022/11/08 06:33:06;;;;;;;18.20;7.73;;;;;;;;;;5005268;28;20026;-78
2022/11/08 06:35:34;;;;;;;14.50;8.20;;;;;;;;;;5005894;28;20029;-81
2022/11/08 06:38:01;;;;;;;14.37;8.83;;;;;;;;;;5010186;28;20085;-80
2022/11/08 06:40:26;;;;;;;16.20;7.93;;;;;;;;;;5028377;28;20497;-80
2022/11/08 06:42:52;;;;;;;14.50;8.40;;;;;;;;;;5014272;28;20033;-81
2022/11/08 06:45:18;;;;;;;17.40;8.17;;;;;;;;;;4989534;28;20034;-80
2022/11/08 06:47:44;;;;;;;18.10;8.47;;;;;;;;;;5013257;28;20096;-80
2022/11/08 06:50:09;;;;;;;22.17;8.50;;;;;;;;;;5021083;28;20038;-81
2022/11/08 06:52:35;;;;;;;24.37;9.60;;;;;;;;;;5025772;28;20026;-79
2022/11/08 06:55:00;;;;;;;20.47;9.63;;;;;;;;;;5020277;28;20025;-80
2022/11/08 06:57:26;;;;;;;16.87;8.20;;;;;;;;;;5024838;28;20033;-81
2022/11/08 06:59:51;;;;;;;22.00;9.27;;;;;;;;;;5029001;28;20137;-81
2022/11/08 07:02:17;;;;;;;13.23;7.73;;;;;;;;;;5036868;28;20124;-81
2022/11/08 07:04:42;;;;;;;19.87;8.23;;;;;;;;;;5041730;28;20021;-82
2022/11/08 07:07:09;;;;;;;16.90;8.63;;;;;;;;;;5040705;28;20005;-79
2022/11/08 07:09:34;;;;;;;20.33;9.87;;;;;;;;;;5040920;28;20037;-81
2022/11/08 07:12:00;;;;;;;13.40;7.60;;;;;;;;;;5035845;28;20029;-80
2022/11/08 07:14:26;;;;;;;17.87;8.03;;;;;;;;;;5016053;28;20048;-80
2022/11/08 07:16:53;;;;;;;29.80;10.40;;;;;;;;;;5024742;28;20017;-79
2022/11/08 07:19:19;;;;;;;14.90;9.50;;;;;;;;;;5026977;28;20021;-82
2022/11/08 07:21:44;;;;;;;17.33;7.53;;;;;;;;;;5018966;28;20044;-81
2022/11/08 07:24:10;;;;;;;17.23;7.97;;;;;;;;;;5019900;28;20030;-80
2022/11/08 07:26:35;;;;;;;10.87;6.70;;;;;;;;;;5032207;28;20036;-79
2022/11/08 07:29:01;;;;;;;13.82;7.57;;;;;;;;;;5023119;28;20030;-80
2022/11/08 07:31:26;;;;;;;17.90;7.20;;;;;;;;;;5020975;28;20017;-80
2022/11/08 07:33:52;;;;;;;18.97;8.00;;;;;;;;;;5034560;28;20060;-81
2022/11/08 07:36:19;;;;;;;16.83;8.63;;;;;;;;;;5041279;28;20032;-79
2022/11/08 07:38:44;;;;;;;16.40;7.57;;;;;;;;;;5036357;28;20079;-81
2022/11/08 07:41:10;;;;;;;15.40;7.10;;;;;;;;;;5036833;28;20334;-81
2022/11/08 07:43:38;;;;;;;16.40;7.27;;;;;;;;;;5005358;28;20034;-79
2022/11/08 07:46:04;;;;;;;14.43;6.77;;;;;;;;;;5004329;28;20044;-81
2022/11/08 07:48:30;;;;;;;13.57;7.10;;;;;;;;;;5026670;28;20057;-80
2022/11/08 07:50:55;;;;;;;14.48;7.93;;;;;;;;;;5014320;28;20026;-80
2022/11/08 07:53:22;;;;;;;14.02;6.18;;;;;;;;;;5007262;28;20026;-80
2022/11/08 07:55:47;;;;;;;14.43;6.85;;;;;;;;;;5021797;28;20044;-81
2022/11/08 07:58:14;;;;;;;13.77;6.80;;;;;;;;;;5020095;28;20050;-81
2022/11/08 08:00:41;;;;;;;15.63;8.43;;;;;;;;;;5020053;28;20103;-82
2022/11/08 08:03:09;;;;;;;17.52;7.13;;;;;;;;;;5026078;28;20092;-80
2022/11/08 08:05:44;;;;;;;23.35;7.25;;;;;;;;;;5033830;28;20431;-81
2022/11/08 08:08:12;;;;;;;14.57;7.85;;;;;;;;;;5020076;28;20022;-81
2022/11/08 08:10:38;;;;;;;10.63;6.30;;;;;;;;;;5015941;28;20067;-81
2022/11/08 08:13:05;;;;;;;17.98;7.25;;;;;;;;;;5015888;28;20055;-81
2022/11/08 08:15:31;;;;;;;12.60;6.15;;;;;;;;;;4989798;28;20036;-79
2022/11/08 08:17:59;;;;;;;10.02;6.10;;;;;;;;;;5009787;28;20066;-81
2022/11/08 08:20:25;;;;;;;11.35;5.72;;;;;;;;;;5016411;28;20576;-80
2022/11/08 08:22:51;;;;;;;10.50;6.10;;;;;;;;;;5010449;28;20075;-81
2022/11/08 08:25:17;;;;;;;14.00;6.47;;;;;;;;;;5026738;28;20038;-82
2022/11/08 08:27:51;;;;;;;13.40;6.30;;;;;;;;;;5014504;28;20092;-80
2022/11/08 08:30:18;;;;;;;9.98;6.13;;;;;;;;;;5015007;28;20037;-80
2022/11/08 08:33:11;;;;;;;14.60;6.00;;;;;;;;;;5018528;28;20022;-80
2022/11/08 08:35:37;;;;;;;11.40;6.20;;;;;;;;;;5003747;28;20037;-79
2022/11/08 08:38:05;;;;;;;15.05;7.30;;;;;;;;;;5024077;28;20882;-81
2022/11/08 08:40:31;;;;;;;12.32;6.68;;;;;;;;;;4997887;28;20045;-80
2022/11/08 08:43:02;;;;;;;12.73;6.35;;;;;;;;;;5008442;28;20026;-79
2022/11/08 08:45:28;;;;;;;11.52;6.97;;;;;;;;;;5014002;28;20478;-80
2022/11/08 08:47:55;;;;;;;9.93;6.47;;;;;;;;;;5022692;28;20029;-78
2022/11/08 08:50:22;;;;;;;8.70;5.80;;;;;;;;;;5012739;28;20049;-79
2022/11/08 08:52:47;;;;;;;14.93;6.30;;;;;;;;;;5011392;28;20064;-78
2022/11/08 08:55:14;;;;;;;12.75;6.63;;;;;;;;;;5011930;28;20030;-78
2022/11/08 08:57:47;;;;;;;10.45;6.55;;;;;;;;;;5011961;28;20509;-78
2022/11/08 09:00:14;;;;;;;14.95;7.28;;;;;;;;;;5011589;28;20061;-79
2022/11/08 09:02:40;;;;;;;11.00;6.45;;;;;;;;;;5009484;28;20030;-79
2022/11/08 09:05:06;;;;;;;10.55;6.38;;;;;;;;;;5014595;28;20036;-80
2022/11/08 09:07:31;;;;;;;12.07;6.55;;;;;;;;;;5013632;28;20053;-79
2022/11/08 09:09:57;;;;;;;12.35;6.95;;;;;;;;;;5013212;28;20040;-81
2022/11/08 09:12:24;;;;;;;9.93;6.35;;;;;;;;;;5007089;28;20054;-79
2022/11/08 09:14:49;;;;;;;11.07;8.50;;;;;;;;;;5016199;28;20022;-79
2022/11/08 09:17:15;;;;;;;10.55;6.25;;;;;;;;;;5007916;28;20038;-78
2022/11/08 09:19:45;;;;;;;12.18;6.45;;;;;;;;;;5020839;28;20117;-81
2022/11/08 09:22:12;;;;;;;15.02;6.68;;;;;;;;;;5007320;28;20382;-79
2022/11/08 09:24:38;;;;;;;8.88;5.65;;;;;;;;;;5014322;28;20028;-77
2022/11/08 09:27:04;;;;;;;15.65;6.53;;;;;;;;;;5013193;28;20124;-79
2022/11/08 09:29:33;;;;;;;12.55;5.80;;;;;;;;;;5014533;28;20033;-77
2022/11/08 09:31:59;;;;;;;13.10;6.00;;;;;;;;;;5015495;28;20072;-77
2022/11/08 09:34:25;;;;;;;11.80;5.50;;;;;;;;;;4996795;28;20041;-81
2022/11/08 09:36:51;;;;;;;12.15;5.72;;;;;;;;;;5014692;28;20038;-81
2022/11/08 09:39:16;;;;;;;9.38;5.85;;;;;;;;;;5014556;28;20070;-78
2022/11/08 09:41:42;;;;;;;9.35;6.18;;;;;;;;;;5022146;28;20033;-84
2022/11/08 09:44:18;;;;;;;7.60;5.95;;;;;;;;;;5013105;28;20065;-80
2022/11/08 09:46:51;;;;;;;9.13;5.25;;;;;;;;;;5011383;28;20036;-79
2022/11/08 09:49:41;;;;;;;10.13;5.88;;;;;;;;;;5024834;28;20025;-80
2022/11/08 09:52:12;;;;;;;16.42;6.00;;;;;;;;;;4992441;28;20693;-79
2022/11/08 09:54:43;;;;;;;11.77;5.80;;;;;;;;;;5007335;28;20043;-79
2022/11/08 09:57:20;;;;;;;10.77;5.50;;;;;;;;;;5006866;28;20479;-78
2022/11/08 09:59:50;;;;;;;14.55;6.55;;;;;;;;;;5008916;28;20029;-78
2022/11/08 10:02:19;;;;;;;18.15;6.25;;;;;;;;;;5009453;28;20528;-78
2022/11/08 10:04:54;;;;;;;11.68;6.95;;;;;;;;;;5011512;28;20037;-79
2022/11/08 10:07:40;;;;;;;10.60;6.22;;;;;;;;;;5008042;28;20033;-79
2022/11/08 10:10:24;;;;;;;8.45;6.90;;;;;;;;;;5015505;28;20052;-78
2022/11/08 10:13:06;;;;;;;10.90;6.03;;;;;;;;;;5027918;28;20528;-78
2022/11/08 10:16:01;;;;;;;9.18;5.70;;;;;;;;;;5007034;28;20053;-80
2022/11/08 10:18:37;;;;;;;10.23;4.95;;;;;;;;;;5010124;28;20034;-78
2022/11/08 10:21:30;;;;;;;6.85;4.72;;;;;;;;;;5015040;28;20053;-80
2022/11/08 10:24:02;;;;;;;8.50;5.10;;;;;;;;;;5006672;28;20045;-79
2022/11/08 10:26:41;;;;;;;10.15;5.70;;;;;;;;;;5014375;28;20426;-80
2022/11/08 10:29:30;;;;;;;9.90;4.85;;;;;;;;;;5005984;28;20033;-78
2022/11/08 10:32:19;;;;;;;13.02;6.25;;;;;;;;;;5017607;28;20033;-82
2022/11/08 10:34:50;;;;;;;9.35;5.05;;;;;;;;;;5005613;28;20057;-80
2022/11/08 10:37:16;;;;;;;10.07;5.38;;;;;;;;;;5013399;28;20034;-80
2022/11/08 10:39:52;;;;;;;9.15;4.68;;;;;;;;;;5012332;28;20124;-81
2022/11/08 10:42:48;;;;;;;8.30;4.95;;;;;;;;;;5021045;28;20099;-82
2022/11/08 10:45:15;;;;;;;9.15;4.07;;;;;;;;;;5010738;28;20793;-80
2022/11/08 10:47:44;;;;;;;10.48;5.07;;;;;;;;;;5014155;28;20026;-80
2022/11/08 10:50:29;;;;;;;7.55;4.68;;;;;;;;;;5013854;28;20041;-78
2022/11/08 10:53:02;;;;;;;10.60;4.80;;;;;;;;;;5008417;28;20018;-79
2022/11/08 10:55:32;;;;;;;7.30;4.25;;;;;;;;;;5013788;28;20137;-79
2022/11/08 10:57:58;;;;;;;9.45;4.22;;;;;;;;;;5021258;28;20057;-79
2022/11/08 11:00:31;;;;;;;8.32;4.68;;;;;;;;;;5012473;28;20462;-78
2022/11/08 11:03:24;;;;;;;8.48;4.82;;;;;;;;;;5009202;28;20030;-81
2022/11/08 11:06:00;;;;;;;7.30;4.72;;;;;;;;;;5008239;28;20046;-78
2022/11/08 11:08:26;;;;;;;6.05;4.43;;;;;;;;;;5007265;28;20548;-78
2022/11/08 11:10:51;;;;;;;10.40;4.22;;;;;;;;;;5013840;28;20481;-79
2022/11/08 11:13:17;;;;;;;6.30;3.83;;;;;;;;;;5009155;28;21277;-78
2022/11/08 11:15:54;;;;;;;6.72;4.53;;;;;;;;;;5008504;28;20022;-79
2022/11/08 11:18:28;;;;;;;6.78;3.90;;;;;;;;;;5006354;28;20041;-78
2022/11/08 11:20:58;;;;;;;21.73;4.03;;;;;;;;;;5006212;28;20041;-79
2022/11/08 11:23:51;;;;;;;7.07;4.00;;;;;;;;;;5005741;28;20064;-79
2022/11/08 11:26:55;;;;;;;5.63;3.92;;;;;;;;;;5010212;28;20129;-78
2022/11/08 11:29:41;;;;;;;7.63;3.92;;;;;;;;;;5012722;28;20048;-78
2022/11/08 11:32:23;;;;;;;6.18;3.40;;;;;;;;;;5008313;28;20505;-76
2022/11/08 11:34:49;;;;;;;;;;;;;;;;;;5006355;28;20476;-79
2022/11/08 11:37:24;;;;;;;8.98;3.97;;;;;;;;;;5006896;28;19956;-79
2022/11/08 11:40:14;;;;;;;6.90;3.60;;;;;;;;;;5006799;28;20198;-77
2022/11/08 11:42:46;;;;;;;6.93;3.97;;;;;;;;;;5008280;28;20033;-79
2022/11/08 11:45:20;;;;;;;11.63;5.35;;;;;;;;;;5008971;28;20037;-79
2022/11/08 11:47:52;;;;;;;10.88;4.65;;;;;;;;;;5011486;28;20046;-77
2022/11/08 11:50:35;;;;;;;7.65;3.80;;;;;;;;;;5008190;28;20037;-80
2022/11/08 11:53:25;;;;;;;12.43;5.25;;;;;;;;;;5010095;28;20057;-78
2022/11/08 11:56:30;;;;;;;10.98;3.58;;;;;;;;;;5008117;28;20486;-79
2022/11/08 11:59:15;;;;;;;8.68;2.70;;;;;;;;;;5009838;28;20040;-80
2022/11/08 12:02:08;;;;;;;6.65;3.55;;;;;;;;;;5024897;28;20658;-78
2022/11/08 12:04:46;;;;;;;7.80;3.63;;;;;;;;;;5005513;28;20037;-79
2022/11/08 12:07:21;;;;;;;5.90;3.22;;;;;;;;;;5023993;28;20366;-81
2022/11/08 12:10:08;;;;;;;6.88;3.65;;;;;;;;;;5011177;28;20037;-78
2022/11/08 12:12:48;;;;;;;7.60;4.22;;;;;;;;;;5009762;28;20033;-79
2022/11/08 12:15:25;;;;;;;5.05;3.05;;;;;;;;;;5022963;28;20033;-78
2022/11/08 12:18:06;;;;;;;5.95;3.50;;;;;;;;;;5010822;28;20038;-80
2022/11/08 12:21:01;;;;;;;4.85;2.50;;;;;;;;;;5009897;28;20042;-78
2022/11/08 12:23:38;;;;;;;4.22;2.80;;;;;;;;;;5008491;28;20034;-78
2022/11/08 12:26:20;;;;;;;5.20;2.80;;;;;;;;;;5008701;28;20038;-80
2022/11/08 12:28:49;;;;;;;;;;;;;;;;;;5003175;28;20033;-78
2022/11/08 12:31:24;;;;;;;16.55;4.07;;;;;;;;;;5008863;28;19913;-79
2022/11/08 12:34:17;;;;;;;5.03;3.05;;;;;;;;;;5022116;28;20065;-80
2022/11/08 12:37:00;;;;;;;6.18;2.90;;;;;;;;;;5007326;28;20034;-79
2022/11/08 12:39:50;;;;;;;7.70;3.20;;;;;;;;;;5021560;28;20050;-80
2022/11/08 12:42:28;;;;;;;6.93;3.35;;;;;;;;;;5023549;28;20050;-80
2022/11/08 12:45:31;;;;;;;8.05;3.33;;;;;;;;;;5005005;28;20513;-79
2022/11/08 12:48:30;;;;;;;5.40;3.13;;;;;;;;;;5004756;28;20132;-79
2022/11/08 12:51:26;;;;;;;6.43;3.10;;;;;;;;;;5023508;28;20037;-78
2022/11/08 12:54:23;;;;;;;8.38;2.90;;;;;;;;;;5006067;28;20042;-80
2022/11/08 12:56:51;;;;;;;20.80;6.35;;;;;;;;;;5012211;28;20033;-78
2022/11/08 12:59:26;;;;;;;7.68;3.60;;;;;;;;;;5008591;28;20042;-78
2022/11/08 13:01:53;;;;;;;15.40;4.15;;;;;;;;;;5011317;28;20038;-80
2022/11/08 13:04:42;;;;;;;9.95;3.28;;;;;;;;;;4985728;28;20472;-78
2022/11/08 13:07:30;;;;;;;8.40;3.65;;;;;;;;;;5012486;28;20109;-80
2022/11/08 13:10:02;;;;;;;7.07;2.85;;;;;;;;;;5011568;28;20034;-80
2022/11/08 13:12:42;;;;;;;2.45;2.08;;;;;;;;;;5014716;28;20055;-79
2022/11/08 13:15:18;;;;;;;4.63;2.35;;;;;;;;;;5009446;28;20431;-77
2022/11/08 13:18:06;;;;;;;4.18;2.25;;;;;;;;;;5014358;28;20127;-83
2022/11/08 13:20:46;;;;;;;8.57;2.40;;;;;;;;;;5029154;28;20036;-80
2022/11/08 13:23:36;;;;;;;5.75;2.63;;;;;;;;;;5016126;28;20489;-78
2022/11/08 13:26:20;;;;;;;6.00;2.22;;;;;;;;;;5016309;28;20042;-77
2022/11/08 13:28:47;;;;;;;6.38;2.08;;;;;;;;;;5019618;28;20029;-78
2022/11/08 13:31:24;;;;;;;5.97;2.13;;;;;;;;;;5015764;28;20105;-79
2022/11/08 13:34:13;;;;;;;5.63;2.30;;;;;;;;;;5016363;28;20014;-78
2022/11/08 13:36:55;;;;;;;3.17;2.17;;;;;;;;;;5015066;28;20057;-77
2022/11/08 13:39:27;;;;;;;;;;;;;;;;;;5035265;28;20041;-79
2022/11/08 13:42:02;;;;;;;5.18;2.60;;;;;;;;;;5015109;28;19924;-77
2022/11/08 13:45:23;;;;;;;5.53;2.38;;;;;;;;;;5016039;28;20021;-78
2022/11/08 13:47:52;;;;;;;6.93;2.20;;;;;;;;;;4998380;28;20468;-79
2022/11/08 13:50:32;;;;;;;8.13;2.78;;;;;;;;;;5019139;28;20452;-80
2022/11/08 13:53:23;;;;;;;7.32;2.63;;;;;;;;;;5012048;28;20068;-78
2022/11/08 13:55:52;;;;;;;6.00;2.60;;;;;;;;;;5017489;28;20037;-78
2022/11/08 13:58:43;;;;;;;6.50;2.28;;;;;;;;;;5011133;28;20026;-76
2022/11/08 14:01:18;;;;;;;11.15;2.67;;;;;;;;;;5012739;28;20041;-78
2022/11/08 14:03:46;;;;;;;5.22;2.17;;;;;;;;;;5014390;28;20038;-79
2022/11/08 14:06:32;;;;;;;4.35;2.08;;;;;;;;;;5030019;28;20096;-79
2022/11/08 14:09:15;;;;;;;8.65;2.17;;;;;;;;;;5030598;28;20084;-79
2022/11/08 14:11:51;;;;;;;5.47;2.65;;;;;;;;;;5001340;28;20124;-79
2022/11/08 14:14:16;;;;;;;24.42;12.73;;;;;;;;;;5013767;28;20030;-79
2022/11/08 14:17:03;;;;;;;7.88;2.50;;;;;;;;;;5013132;28;20064;-78
2022/11/08 14:19:36;;;;;;;5.47;2.33;;;;;;;;;;5027835;28;20121;-77
2022/11/08 14:22:02;;;;;;;2.80;1.58;;;;;;;;;;5015438;28;20109;-78
2022/11/08 14:24:35;;;;;;;15.55;8.18;;;;;;;;;;4996979;28;21076;-79
2022/11/08 14:27:02;;;;;;;13.25;5.18;;;;;;;;;;5006550;28;20592;-77
2022/11/08 14:29:28;;;;;;;46.45;7.40;;;;;;;;;;5007389;28;20037;-78
2022/11/08 14:32:18;;;;;;;8.35;2.38;;;;;;;;;;4988225;28;20038;-78
2022/11/08 14:34:44;;;;;;;5.72;1.65;;;;;;;;;;5014955;28;20140;-80
2022/11/08 14:37:22;;;;;;;4.50;2.28;;;;;;;;;;5010622;28;20037;-78
2022/11/08 14:39:49;;;;;;;4.57;2.53;;;;;;;;;;5009571;28;20025;-78
2022/11/08 14:42:25;;;;;;;4.80;1.90;;;;;;;;;;5014249;28;20080;-77
2022/11/08 14:44:55;;;;;;;2.88;2.22;;;;;;;;;;4998565;28;20474;-78
2022/11/08 14:47:29;;;;;;;4.40;2.20;;;;;;;;;;5021261;28;20505;-77
2022/11/08 14:49:56;;;;;;;12.00;3.20;;;;;;;;;;5017289;28;20029;-79
2022/11/08 14:52:29;;;;;;;6.25;2.38;;;;;;;;;;4999369;28;20071;-81
2022/11/08 14:55:10;;;;;;;5.03;1.85;;;;;;;;;;5015101;28;20034;-81
2022/11/08 14:57:41;;;;;;;5.35;2.80;;;;;;;;;;5014708;28;20030;-78
2022/11/08 15:00:16;;;;;;;15.73;3.40;;;;;;;;;;5001302;28;20126;-80
2022/11/08 15:02:48;;;;;;;10.88;3.63;;;;;;;;;;5017247;28;20053;-80
2022/11/08 15:05:29;;;;;;;13.82;4.95;;;;;;;;;;5013980;28;20095;-82
2022/11/08 15:07:55;;;;;;;6.65;2.90;;;;;;;;;;5020737;28;20053;-80
2022/11/08 15:10:21;;;;;;;4.45;2.90;;;;;;;;;;5018786;28;20030;-82
2022/11/08 15:12:47;;;;;;;9.65;3.25;;;;;;;;;;5010424;28;20480;-80
2022/11/08 15:15:39;;;;;;;9.32;2.58;;;;;;;;;;5017080;28;20128;-80
2022/11/08 15:18:14;;;;;;;4.43;2.58;;;;;;;;;;5011023;28;20278;-80
2022/11/08 15:20:59;;;;;;;5.78;2.28;;;;;;;;;;5009050;28;20049;-80